sensor_id;sensor_type;location;lat;lon;timestamp;pressure;altitude;pressure_sealevel;temperature;humidity
62031;BME280;62035;52.094;5.112;2023-03-21T00:01:01;101746.69;;;11.32;100.00
62031;BME280;62035;52.094;5.112;2023-03-21T00:03:30;101735.88;;;11.34;100.00
62031;BME280;62035;52.094;5.112;2023-03-21T00:06:04;101728.03;;;11.32;100.00
62031;BME280;62035;52.094;5.112;2023-03-21T00:08:34;101738.72;;;11.12;100.00
62031;BME280;62035;52.094;5.112;2023-03-21T00:11:03;101727.28;;;11.00;100.00
62031;BME280;62035;52.094;5.112;2023-03-21T00:13:33;101724.38;;;11.03;100.00
62031;BME280;62035;52.094;5.112;2023-03-21T00:16:05;101734.94;;;11.14;100.00
62031;BME280;62035;52.094;5.112;2023-03-21T00:18:35;101730.59;;;11.13;100.00
62031;BME280;62035;52.094;5.112;2023-03-21T00:21:07;101726.25;;;11.12;100.00
62031;BME280;62035;52.094;5.112;2023-03-21T00:23:38;101729.13;;;11.30;100.00
62031;BME280;62035;52.094;5.112;2023-03-21T00:26:06;101721.38;;;11.17;100.00
62031;BME280;62035;52.094;5.112;2023-03-21T00:28:35;101724.69;;;11.10;100.00
62031;BME280;62035;52.094;5.112;2023-03-21T00:31:03;101719.50;;;11.39;100.00
62031;BME280;62035;52.094;5.112;2023-03-21T00:33:31;101715.50;;;11.23;100.00
62031;BME280;62035;52.094;5.112;2023-03-21T00:35:59;101720.44;;;10.86;100.00
62031;BME280;62035;52.094;5.112;2023-03-21T00:38:28;101719.94;;;10.92;100.00
62031;BME280;62035;52.094;5.112;2023-03-21T00:40:57;101712.41;;;10.97;100.00
62031;BME280;62035;52.094;5.112;2023-03-21T00:43:24;101719.75;;;11.05;100.00
62031;BME280;62035;52.094;5.112;2023-03-21T00:45:56;101701.56;;;11.10;100.00
62031;BME280;62035;52.094;5.112;2023-03-21T00:48:25;101705.03;;;11.31;100.00
62031;BME280;62035;52.094;5.112;2023-03-21T00:50:55;101708.19;;;11.16;100.00
62031;BME280;62035;52.094;5.112;2023-03-21T00:53:24;101698.06;;;11.10;100.00
62031;BME280;62035;52.094;5.112;2023-03-21T00:55:52;101704.97;;;11.22;100.00
62031;BME280;62035;52.094;5.112;2023-03-21T00:58:21;101681.69;;;11.14;100.00
62031;BME280;62035;52.094;5.112;2023-03-21T01:00:48;101689.56;;;11.25;100.00
62031;BME280;62035;52.094;5.112;2023-03-21T01:03:16;101693.50;;;11.31;100.00
62031;BME280;62035;52.094;5.112;2023-03-21T01:05:47;101687.38;;;11.40;100.00
62031;BME280;62035;52.094;5.112;2023-03-21T01:08:31;101687.28;;;11.21;100.00
62031;BME280;62035;52.094;5.112;2023-03-21T01:11:02;101682.91;;;11.10;100.00
62031;BME280;62035;52.094;5.112;2023-03-21T01:13:33;101678.03;;;11.15;100.00
62031;BME280;62035;52.094;5.112;2023-03-21T01:16:03;101679.72;;;11.16;100.00
62031;BME280;62035;52.094;5.112;2023-03-21T01:18:34;101663.16;;;10.92;100.00
62031;BME280;62035;52.094;5.112;2023-03-21T01:21:07;101673.75;;;11.03;100.00
62031;BME280;62035;52.094;5.112;2023-03-21T01:23:38;101669.63;;;11.20;100.00
62031;BME280;62035;52.094;5.112;2023-03-21T01:26:07;101675.25;;;11.17;100.00
62031;BME280;62035;52.094;5.112;2023-03-21T01:28:40;101665.44;;;11.17;100.00
62031;BME280;62035;52.094;5.112;2023-03-21T01:31:10;101675.53;;;11.23;100.00
62031;BME280;62035;52.094;5.112;2023-03-21T01:33:39;101667.78;;;11.20;100.00
62031;BME280;62035;52.094;5.112;2023-03-21T01:36:08;101665.19;;;10.99;100.00
62031;BME280;62035;52.094;5.112;2023-03-21T01:38:40;101659.78;;;11.11;100.00
62031;BME280;62035;52.094;5.112;2023-03-21T01:41:19;101656.34;;;10.99;100.00
62031;BME280;62035;52.094;5.112;2023-03-21T01:43:51;101658.69;;;11.23;100.00
62031;BME280;62035;52.094;5.112;2023-03-21T01:46:35;101652.25;;;10.95;100.00
62031;BME280;62035;52.094;5.112;2023-03-21T01:49:12;101647.84;;;11.05;100.00
62031;BME280;62035;52.094;5.112;2023-03-21T01:51:47;101642.75;;;11.02;100.00
62031;BME280;62035;52.094;5.112;2023-03-21T01:54:22;101645.75;;;11.09;100.00
62031;BME280;62035;52.094;5.112;2023-03-21T01:56:55;101639.47;;;10.89;100.00
62031;BME280;62035;52.094;5.112;2023-03-21T01:59:29;101636.00;;;11.19;100.00
62031;BME280;62035;52.094;5.112;2023-03-21T02:02:04;101631.19;;;11.22;100.00
62031;BME280;62035;52.094;5.112;2023-03-21T02:04:36;101628.84;;;11.19;100.00
62031;BME280;62035;52.094;5.112;2023-03-21T02:07:06;101622.75;;;11.08;100.00
62031;BME280;62035;52.094;5.112;2023-03-21T02:09:41;101618.13;;;11.10;100.00
62031;BME280;62035;52.094;5.112;2023-03-21T02:12:12;101614.44;;;11.01;100.00
62031;BME280;62035;52.094;5.112;2023-03-21T02:14:42;101615.47;;;10.79;100.00
62031;BME280;62035;52.094;5.112;2023-03-21T02:17:18;101619.06;;;10.99;100.00
62031;BME280;62035;52.094;5.112;2023-03-21T02:23:38;101608.00;;;11.03;100.00
62031;BME280;62035;52.094;5.112;2023-03-21T02:26:48;101607.66;;;11.18;100.00
62031;BME280;62035;52.094;5.112;2023-03-21T02:29:44;101595.47;;;11.25;100.00
62031;BME280;62035;52.094;5.112;2023-03-21T02:32:46;101588.44;;;11.24;100.00
62031;BME280;62035;52.094;5.112;2023-03-21T02:35:39;101597.53;;;11.21;100.00
62031;BME280;62035;52.094;5.112;2023-03-21T02:38:25;101588.56;;;11.22;100.00
62031;BME280;62035;52.094;5.112;2023-03-21T02:41:01;101592.56;;;11.38;100.00
62031;BME280;62035;52.094;5.112;2023-03-21T02:43:39;101584.13;;;11.32;100.00
62031;BME280;62035;52.094;5.112;2023-03-21T02:46:15;101572.06;;;11.28;100.00
62031;BME280;62035;52.094;5.112;2023-03-21T02:48:53;101585.28;;;11.40;100.00
62031;BME280;62035;52.094;5.112;2023-03-21T02:51:29;101582.44;;;11.31;100.00
62031;BME280;62035;52.094;5.112;2023-03-21T02:54:03;101579.72;;;11.12;100.00
62031;BME280;62035;52.094;5.112;2023-03-21T02:56:35;101576.66;;;11.17;100.00
62031;BME280;62035;52.094;5.112;2023-03-21T02:59:06;101579.47;;;11.25;100.00
62031;BME280;62035;52.094;5.112;2023-03-21T03:01:34;101572.19;;;11.17;100.00
62031;BME280;62035;52.094;5.112;2023-03-21T03:04:03;101574.06;;;10.96;100.00
62031;BME280;62035;52.094;5.112;2023-03-21T03:06:36;101573.53;;;10.72;100.00
62031;BME280;62035;52.094;5.112;2023-03-21T03:09:25;101587.38;;;10.96;100.00
62031;BME280;62035;52.094;5.112;2023-03-21T03:12:11;101581.28;;;11.15;100.00
62031;BME280;62035;52.094;5.112;2023-03-21T03:14:57;101576.50;;;11.09;100.00
62031;BME280;62035;52.094;5.112;2023-03-21T03:17:39;101579.88;;;11.11;100.00
62031;BME280;62035;52.094;5.112;2023-03-21T03:20:31;101580.44;;;11.14;100.00
62031;BME280;62035;52.094;5.112;2023-03-21T03:23:16;101577.56;;;10.96;100.00
62031;BME280;62035;52.094;5.112;2023-03-21T03:25:56;101571.34;;;10.86;100.00
62031;BME280;62035;52.094;5.112;2023-03-21T03:28:30;101576.66;;;10.86;100.00
62031;BME280;62035;52.094;5.112;2023-03-21T03:31:03;101549.31;;;10.84;100.00
62031;BME280;62035;52.094;5.112;2023-03-21T03:33:35;101558.50;;;11.01;100.00
62031;BME280;62035;52.094;5.112;2023-03-21T03:36:09;101570.50;;;10.86;100.00
62031;BME280;62035;52.094;5.112;2023-03-21T03:38:40;101568.06;;;10.73;100.00
62031;BME280;62035;52.094;5.112;2023-03-21T03:41:15;101567.88;;;10.95;100.00
62031;BME280;62035;52.094;5.112;2023-03-21T03:43:47;101564.03;;;10.79;100.00
62031;BME280;62035;52.094;5.112;2023-03-21T03:46:25;101544.03;;;10.94;100.00
62031;BME280;62035;52.094;5.112;2023-03-21T03:49:00;101560.19;;;11.02;100.00
62031;BME280;62035;52.094;5.112;2023-03-21T03:51:38;101556.38;;;10.95;100.00
62031;BME280;62035;52.094;5.112;2023-03-21T03:54:32;101566.94;;;11.06;100.00
62031;BME280;62035;52.094;5.112;2023-03-21T03:57:06;101558.72;;;10.79;100.00
62031;BME280;62035;52.094;5.112;2023-03-21T03:59:35;101557.19;;;10.86;100.00
62031;BME280;62035;52.094;5.112;2023-03-21T04:02:04;101550.63;;;10.90;100.00
62031;BME280;62035;52.094;5.112;2023-03-21T04:04:32;101557.66;;;11.00;100.00
62031;BME280;62035;52.094;5.112;2023-03-21T04:07:02;101544.63;;;10.97;100.00
62031;BME280;62035;52.094;5.112;2023-03-21T04:09:29;101548.03;;;11.09;100.00
62031;BME280;62035;52.094;5.112;2023-03-21T04:11:57;101545.56;;;10.87;100.00
62031;BME280;62035;52.094;5.112;2023-03-21T04:14:26;101547.56;;;10.94;100.00
62031;BME280;62035;52.094;5.112;2023-03-21T04:16:54;101542.03;;;11.26;100.00
62031;BME280;62035;52.094;5.112;2023-03-21T04:19:22;101543.84;;;11.26;100.00
62031;BME280;62035;52.094;5.112;2023-03-21T04:21:49;101537.69;;;11.16;100.00
62031;BME280;62035;52.094;5.112;2023-03-21T04:24:18;101534.72;;;11.09;100.00
62031;BME280;62035;52.094;5.112;2023-03-21T04:26:46;101533.34;;;11.24;100.00
62031;BME280;62035;52.094;5.112;2023-03-21T04:29:13;101532.34;;;11.16;100.00
62031;BME280;62035;52.094;5.112;2023-03-21T04:31:42;101538.78;;;11.23;100.00
62031;BME280;62035;52.094;5.112;2023-03-21T04:34:10;101538.81;;;11.32;100.00
62031;BME280;62035;52.094;5.112;2023-03-21T04:36:38;101531.09;;;11.29;100.00
62031;BME280;62035;52.094;5.112;2023-03-21T04:39:08;101529.41;;;11.28;100.00
62031;BME280;62035;52.094;5.112;2023-03-21T04:41:38;101529.47;;;11.48;100.00
62031;BME280;62035;52.094;5.112;2023-03-21T04:44:06;101524.53;;;11.33;100.00
62031;BME280;62035;52.094;5.112;2023-03-21T04:46:35;101528.34;;;11.50;100.00
62031;BME280;62035;52.094;5.112;2023-03-21T04:49:05;101528.91;;;11.44;100.00
62031;BME280;62035;52.094;5.112;2023-03-21T04:51:33;101528.84;;;11.15;100.00
62031;BME280;62035;52.094;5.112;2023-03-21T04:54:01;101528.16;;;11.32;100.00
62031;BME280;62035;52.094;5.112;2023-03-21T04:56:30;101519.44;;;11.11;100.00
62031;BME280;62035;52.094;5.112;2023-03-21T04:58:59;101523.78;;;11.12;100.00
62031;BME280;62035;52.094;5.112;2023-03-21T05:01:28;101523.78;;;11.12;100.00
62031;BME280;62035;52.094;5.112;2023-03-21T05:03:56;101519.78;;;10.87;100.00
62031;BME280;62035;52.094;5.112;2023-03-21T05:06:26;101521.38;;;10.99;100.00
62031;BME280;62035;52.094;5.112;2023-03-21T05:08:55;101519.31;;;11.13;100.00
62031;BME280;62035;52.094;5.112;2023-03-21T05:11:25;101515.13;;;11.29;100.00
62031;BME280;62035;52.094;5.112;2023-03-21T05:13:53;101515.41;;;11.36;100.00
62031;BME280;62035;52.094;5.112;2023-03-21T05:16:20;101507.81;;;11.12;100.00
62031;BME280;62035;52.094;5.112;2023-03-21T05:18:52;101513.84;;;11.14;100.00
62031;BME280;62035;52.094;5.112;2023-03-21T05:21:21;101506.13;;;11.11;100.00
62031;BME280;62035;52.094;5.112;2023-03-21T05:23:50;101506.09;;;11.01;100.00
62031;BME280;62035;52.094;5.112;2023-03-21T05:26:20;101499.78;;;11.02;100.00
62031;BME280;62035;52.094;5.112;2023-03-21T05:28:49;101499.03;;;10.91;100.00
62031;BME280;62035;52.094;5.112;2023-03-21T05:31:17;101494.59;;;11.01;100.00
62031;BME280;62035;52.094;5.112;2023-03-21T05:33:46;101492.75;;;10.92;100.00
62031;BME280;62035;52.094;5.112;2023-03-21T05:36:14;101494.03;;;10.97;100.00
62031;BME280;62035;52.094;5.112;2023-03-21T05:38:42;101493.38;;;11.15;100.00
62031;BME280;62035;52.094;5.112;2023-03-21T05:41:13;101491.41;;;11.17;100.00
62031;BME280;62035;52.094;5.112;2023-03-21T05:43:42;101485.78;;;11.10;100.00
62031;BME280;62035;52.094;5.112;2023-03-21T05:46:10;101483.03;;;10.72;100.00
62031;BME280;62035;52.094;5.112;2023-03-21T05:48:37;101490.16;;;10.81;100.00
62031;BME280;62035;52.094;5.112;2023-03-21T05:51:05;101494.38;;;10.83;100.00
62031;BME280;62035;52.094;5.112;2023-03-21T05:53:33;101485.31;;;10.95;100.00
62031;BME280;62035;52.094;5.112;2023-03-21T05:56:01;101482.69;;;11.05;100.00
62031;BME280;62035;52.094;5.112;2023-03-21T05:58:30;101485.22;;;11.07;100.00
62031;BME280;62035;52.094;5.112;2023-03-21T06:00:57;101490.88;;;10.83;100.00
62031;BME280;62035;52.094;5.112;2023-03-21T06:03:25;101488.47;;;11.29;100.00
62031;BME280;62035;52.094;5.112;2023-03-21T06:05:52;101482.47;;;11.37;100.00
62031;BME280;62035;52.094;5.112;2023-03-21T06:08:20;101482.84;;;11.13;100.00
62031;BME280;62035;52.094;5.112;2023-03-21T06:10:48;101486.91;;;11.08;100.00
62031;BME280;62035;52.094;5.112;2023-03-21T06:13:15;101484.66;;;11.22;100.00
62031;BME280;62035;52.094;5.112;2023-03-21T06:15:45;101487.34;;;11.13;100.00
62031;BME280;62035;52.094;5.112;2023-03-21T06:18:13;101490.50;;;10.97;100.00
62031;BME280;62035;52.094;5.112;2023-03-21T06:20:41;101489.44;;;11.09;100.00
62031;BME280;62035;52.094;5.112;2023-03-21T06:23:08;101486.50;;;11.12;100.00
62031;BME280;62035;52.094;5.112;2023-03-21T06:25:36;101483.53;;;11.06;100.00
62031;BME280;62035;52.094;5.112;2023-03-21T06:28:03;101482.88;;;11.32;100.00
62031;BME280;62035;52.094;5.112;2023-03-21T06:30:31;101482.91;;;11.52;100.00
62031;BME280;62035;52.094;5.112;2023-03-21T06:33:00;101491.31;;;11.47;100.00
62031;BME280;62035;52.094;5.112;2023-03-21T06:35:28;101493.53;;;11.42;100.00
62031;BME280;62035;52.094;5.112;2023-03-21T06:37:55;101491.56;;;11.34;100.00
62031;BME280;62035;52.094;5.112;2023-03-21T06:40:24;101488.75;;;11.17;100.00
62031;BME280;62035;52.094;5.112;2023-03-21T06:42:51;101488.75;;;11.17;100.00
62031;BME280;62035;52.094;5.112;2023-03-21T06:45:19;101491.28;;;11.38;100.00
62031;BME280;62035;52.094;5.112;2023-03-21T06:47:46;101488.22;;;11.52;100.00
62031;BME280;62035;52.094;5.112;2023-03-21T06:50:15;101485.41;;;11.44;100.00
62031;BME280;62035;52.094;5.112;2023-03-21T06:52:44;101482.06;;;11.51;100.00
62031;BME280;62035;52.094;5.112;2023-03-21T06:55:11;101488.06;;;11.63;100.00
62031;BME280;62035;52.094;5.112;2023-03-21T06:57:39;101488.91;;;11.34;100.00
62031;BME280;62035;52.094;5.112;2023-03-21T07:00:08;101486.38;;;11.33;100.00
62031;BME280;62035;52.094;5.112;2023-03-21T07:02:36;101490.84;;;11.23;100.00
62031;BME280;62035;52.094;5.112;2023-03-21T07:05:05;101498.88;;;11.52;100.00
62031;BME280;62035;52.094;5.112;2023-03-21T07:07:34;101494.50;;;11.31;100.00
62031;BME280;62035;52.094;5.112;2023-03-21T07:10:02;101495.75;;;11.27;100.00
62031;BME280;62035;52.094;5.112;2023-03-21T07:12:31;101494.06;;;11.26;100.00
62031;BME280;62035;52.094;5.112;2023-03-21T07:15:01;101499.44;;;11.36;100.00
62031;BME280;62035;52.094;5.112;2023-03-21T07:17:30;101499.91;;;11.01;100.00
62031;BME280;62035;52.094;5.112;2023-03-21T07:19:58;101492.41;;;11.16;100.00
62031;BME280;62035;52.094;5.112;2023-03-21T07:22:26;101505.69;;;11.06;100.00
62031;BME280;62035;52.094;5.112;2023-03-21T07:24:55;101503.06;;;11.16;100.00
62031;BME280;62035;52.094;5.112;2023-03-21T07:27:22;101500.81;;;11.30;100.00
62031;BME280;62035;52.094;5.112;2023-03-21T07:29:50;101492.00;;;11.40;100.00
62031;BME280;62035;52.094;5.112;2023-03-21T07:32:18;101488.91;;;11.34;100.00
62031;BME280;62035;52.094;5.112;2023-03-21T07:34:46;101483.44;;;11.46;100.00
62031;BME280;62035;52.094;5.112;2023-03-21T07:37:13;101469.56;;;11.42;100.00
62031;BME280;62035;52.094;5.112;2023-03-21T07:39:41;101469.97;;;11.18;100.00
62031;BME280;62035;52.094;5.112;2023-03-21T07:42:10;101466.19;;;11.30;100.00
62031;BME280;62035;52.094;5.112;2023-03-21T07:44:38;101473.75;;;11.25;100.00
62031;BME280;62035;52.094;5.112;2023-03-21T07:47:05;101454.13;;;11.46;100.00
62031;BME280;62035;52.094;5.112;2023-03-21T07:49:33;101459.31;;;11.66;100.00
62031;BME280;62035;52.094;5.112;2023-03-21T07:52:00;101466.59;;;11.64;100.00
62031;BME280;62035;52.094;5.112;2023-03-21T07:54:28;101465.34;;;11.68;100.00
62031;BME280;62035;52.094;5.112;2023-03-21T07:56:56;101474.22;;;11.79;100.00
62031;BME280;62035;52.094;5.112;2023-03-21T07:59:25;101475.44;;;11.65;100.00
62031;BME280;62035;52.094;5.112;2023-03-21T08:01:52;101475.03;;;11.69;100.00
62031;BME280;62035;52.094;5.112;2023-03-21T08:04:20;101470.72;;;11.78;100.00
62031;BME280;62035;52.094;5.112;2023-03-21T08:06:49;101475.16;;;11.68;100.00
62031;BME280;62035;52.094;5.112;2023-03-21T08:09:17;101453.84;;;11.87;100.00
62031;BME280;62035;52.094;5.112;2023-03-21T08:11:44;101456.50;;;11.68;100.00
62031;BME280;62035;52.094;5.112;2023-03-21T08:14:12;101451.03;;;11.41;100.00
62031;BME280;62035;52.094;5.112;2023-03-21T08:16:41;101457.19;;;11.70;100.00
62031;BME280;62035;52.094;5.112;2023-03-21T08:19:08;101454.53;;;11.70;100.00
62031;BME280;62035;52.094;5.112;2023-03-21T08:21:36;101451.03;;;11.69;100.00
62031;BME280;62035;52.094;5.112;2023-03-21T08:24:04;101448.38;;;11.98;100.00
62031;BME280;62035;52.094;5.112;2023-03-21T08:26:33;101451.13;;;12.07;100.00
62031;BME280;62035;52.094;5.112;2023-03-21T08:29:01;101429.44;;;11.82;100.00
62031;BME280;62035;52.094;5.112;2023-03-21T08:31:28;101437.44;;;11.82;100.00
62031;BME280;62035;52.094;5.112;2023-03-21T08:33:57;101440.25;;;11.81;100.00
62031;BME280;62035;52.094;5.112;2023-03-21T08:36:25;101425.63;;;11.94;100.00
62031;BME280;62035;52.094;5.112;2023-03-21T08:38:53;101421.28;;;11.93;100.00
62031;BME280;62035;52.094;5.112;2023-03-21T08:41:29;101417.97;;;12.19;100.00
62031;BME280;62035;52.094;5.112;2023-03-21T08:43:56;101423.41;;;12.37;100.00
62031;BME280;62035;52.094;5.112;2023-03-21T08:46:24;101417.84;;;12.11;100.00
62031;BME280;62035;52.094;5.112;2023-03-21T08:48:52;101415.09;;;11.93;100.00
62031;BME280;62035;52.094;5.112;2023-03-21T08:51:22;101409.84;;;12.11;100.00
62031;BME280;62035;52.094;5.112;2023-03-21T08:53:49;101409.06;;;12.38;100.00
62031;BME280;62035;52.094;5.112;2023-03-21T08:56:17;101391.97;;;12.21;100.00
62031;BME280;62035;52.094;5.112;2023-03-21T08:58:45;101391.59;;;12.06;100.00
62031;BME280;62035;52.094;5.112;2023-03-21T09:01:14;101395.25;;;12.05;100.00
62031;BME280;62035;52.094;5.112;2023-03-21T09:03:42;101393.84;;;12.11;100.00
62031;BME280;62035;52.094;5.112;2023-03-21T09:06:10;101396.94;;;12.43;100.00
62031;BME280;62035;52.094;5.112;2023-03-21T09:08:40;101385.41;;;12.43;100.00
62031;BME280;62035;52.094;5.112;2023-03-21T09:11:09;101381.97;;;12.32;100.00
62031;BME280;62035;52.094;5.112;2023-03-21T09:13:36;101377.22;;;12.26;100.00
62031;BME280;62035;52.094;5.112;2023-03-21T09:16:05;101377.06;;;12.28;100.00
62031;BME280;62035;52.094;5.112;2023-03-21T09:18:33;101381.00;;;12.24;100.00
62031;BME280;62035;52.094;5.112;2023-03-21T09:21:15;101370.13;;;12.62;100.00
62031;BME280;62035;52.094;5.112;2023-03-21T09:23:46;101373.22;;;12.67;100.00
62031;BME280;62035;52.094;5.112;2023-03-21T09:26:18;101365.50;;;12.64;100.00
62031;BME280;62035;52.094;5.112;2023-03-21T09:28:46;101369.78;;;12.75;100.00
62031;BME280;62035;52.094;5.112;2023-03-21T09:31:15;101360.88;;;13.02;100.00
62031;BME280;62035;52.094;5.112;2023-03-21T09:33:48;101355.31;;;12.78;100.00
62031;BME280;62035;52.094;5.112;2023-03-21T09:36:16;101345.19;;;13.17;100.00
62031;BME280;62035;52.094;5.112;2023-03-21T09:38:48;101346.91;;;13.08;100.00
62031;BME280;62035;52.094;5.112;2023-03-21T09:41:44;101354.19;;;13.16;100.00
62031;BME280;62035;52.094;5.112;2023-03-21T09:44:41;101356.44;;;13.28;100.00
62031;BME280;62035;52.094;5.112;2023-03-21T09:47:20;101332.94;;;13.14;100.00
62031;BME280;62035;52.094;5.112;2023-03-21T09:49:54;101349.34;;;13.63;100.00
62031;BME280;62035;52.094;5.112;2023-03-21T09:52:27;101346.75;;;13.71;100.00
62031;BME280;62035;52.094;5.112;2023-03-21T09:55:01;101340.19;;;13.40;100.00
62031;BME280;62035;52.094;5.112;2023-03-21T09:57:45;101302.28;;;13.18;100.00
62031;BME280;62035;52.094;5.112;2023-03-21T10:00:20;101341.66;;;13.60;100.00
62031;BME280;62035;52.094;5.112;2023-03-21T10:02:56;101344.56;;;14.00;100.00
62031;BME280;62035;52.094;5.112;2023-03-21T10:05:30;101332.69;;;14.29;100.00
62031;BME280;62035;52.094;5.112;2023-03-21T10:08:03;101343.44;;;13.77;100.00
62031;BME280;62035;52.094;5.112;2023-03-21T10:10:40;101351.16;;;14.14;100.00
62031;BME280;62035;52.094;5.112;2023-03-21T10:13:16;101339.16;;;14.18;100.00
62031;BME280;62035;52.094;5.112;2023-03-21T10:15:47;101338.22;;;14.35;100.00
62031;BME280;62035;52.094;5.112;2023-03-21T10:18:20;101330.09;;;14.53;100.00
62031;BME280;62035;52.094;5.112;2023-03-21T10:20:51;101328.28;;;14.20;100.00
62031;BME280;62035;52.094;5.112;2023-03-21T10:23:22;101330.59;;;14.49;100.00
62031;BME280;62035;52.094;5.112;2023-03-21T10:25:57;101323.31;;;13.91;100.00
62031;BME280;62035;52.094;5.112;2023-03-21T10:28:35;101335.06;;;13.98;100.00
62031;BME280;62035;52.094;5.112;2023-03-21T10:31:08;101328.31;;;14.28;100.00
62031;BME280;62035;52.094;5.112;2023-03-21T10:33:42;101313.91;;;14.21;100.00
62031;BME280;62035;52.094;5.112;2023-03-21T10:36:16;101314.41;;;14.24;100.00
62031;BME280;62035;52.094;5.112;2023-03-21T10:38:54;101295.88;;;14.31;100.00
62031;BME280;62035;52.094;5.112;2023-03-21T10:41:28;101304.34;;;14.60;100.00
62031;BME280;62035;52.094;5.112;2023-03-21T10:44:06;101311.41;;;14.78;100.00
62031;BME280;62035;52.094;5.112;2023-03-21T10:46:49;101300.84;;;14.84;100.00
62031;BME280;62035;52.094;5.112;2023-03-21T10:49:19;101315.41;;;14.65;100.00
62031;BME280;62035;52.094;5.112;2023-03-21T10:51:50;101318.28;;;14.72;100.00
62031;BME280;62035;52.094;5.112;2023-03-21T10:54:26;101313.91;;;14.87;100.00
62031;BME280;62035;52.094;5.112;2023-03-21T10:57:01;101318.47;;;15.11;100.00
62031;BME280;62035;52.094;5.112;2023-03-21T10:59:35;101314.75;;;14.72;100.00
62031;BME280;62035;52.094;5.112;2023-03-21T11:02:14;101328.13;;;14.80;100.00
62031;BME280;62035;52.094;5.112;2023-03-21T11:04:46;101322.50;;;15.15;100.00
62031;BME280;62035;52.094;5.112;2023-03-21T11:07:15;101320.63;;;15.24;100.00
62031;BME280;62035;52.094;5.112;2023-03-21T11:09:46;101313.94;;;15.20;100.00
62031;BME280;62035;52.094;5.112;2023-03-21T11:12:27;101326.03;;;15.16;100.00
62031;BME280;62035;52.094;5.112;2023-03-21T11:14:56;101315.09;;;14.93;100.00
62031;BME280;62035;52.094;5.112;2023-03-21T11:17:27;101319.97;;;15.06;100.00
62031;BME280;62035;52.094;5.112;2023-03-21T11:19:58;101315.44;;;15.47;100.00
62031;BME280;62035;52.094;5.112;2023-03-21T11:22:36;101301.72;;;15.58;100.00
62031;BME280;62035;52.094;5.112;2023-03-21T11:25:09;101294.66;;;15.41;100.00
62031;BME280;62035;52.094;5.112;2023-03-21T11:27:49;101303.69;;;15.64;100.00
62031;BME280;62035;52.094;5.112;2023-03-21T11:30:20;101282.59;;;15.37;100.00
62031;BME280;62035;52.094;5.112;2023-03-21T11:32:50;101284.94;;;15.40;100.00
62031;BME280;62035;52.094;5.112;2023-03-21T11:35:23;101261.59;;;15.64;100.00
62031;BME280;62035;52.094;5.112;2023-03-21T11:37:58;101276.06;;;16.02;100.00
62031;BME280;62035;52.094;5.112;2023-03-21T11:40:27;101269.75;;;15.87;100.00
62031;BME280;62035;52.094;5.112;2023-03-21T11:42:59;101268.66;;;16.05;100.00
62031;BME280;62035;52.094;5.112;2023-03-21T11:45:28;101287.50;;;15.96;100.00
62031;BME280;62035;52.094;5.112;2023-03-21T11:47:59;101281.69;;;15.85;100.00
62031;BME280;62035;52.094;5.112;2023-03-21T11:50:31;101286.44;;;15.34;100.00
62031;BME280;62035;52.094;5.112;2023-03-21T11:53:17;101290.97;;;15.33;100.00
62031;BME280;62035;52.094;5.112;2023-03-21T11:56:03;101281.28;;;15.16;100.00
62031;BME280;62035;52.094;5.112;2023-03-21T11:58:55;101290.72;;;15.84;100.00
62031;BME280;62035;52.094;5.112;2023-03-21T12:01:48;101276.06;;;15.39;100.00
62031;BME280;62035;52.094;5.112;2023-03-21T12:04:38;101278.53;;;15.65;100.00
62031;BME280;62035;52.094;5.112;2023-03-21T12:07:32;101284.28;;;15.29;100.00
62031;BME280;62035;52.094;5.112;2023-03-21T12:10:27;101261.19;;;15.04;100.00
62031;BME280;62035;52.094;5.112;2023-03-21T12:13:07;101280.28;;;15.17;100.00
62031;BME280;62035;52.094;5.112;2023-03-21T12:15:48;101270.19;;;15.27;100.00
62031;BME280;62035;52.094;5.112;2023-03-21T12:18:36;101260.97;;;15.46;100.00
62031;BME280;62035;52.094;5.112;2023-03-21T12:21:30;101262.44;;;15.65;100.00
62031;BME280;62035;52.094;5.112;2023-03-21T12:24:05;101247.53;;;15.54;100.00
62031;BME280;62035;52.094;5.112;2023-03-21T12:26:43;101244.66;;;15.64;100.00
62031;BME280;62035;52.094;5.112;2023-03-21T12:29:37;101244.16;;;16.08;100.00
62031;BME280;62035;52.094;5.112;2023-03-21T12:32:27;101246.34;;;16.04;100.00
62031;BME280;62035;52.094;5.112;2023-03-21T12:35:17;101244.97;;;15.77;100.00
62031;BME280;62035;52.094;5.112;2023-03-21T12:38:02;101240.97;;;16.04;100.00
62031;BME280;62035;52.094;5.112;2023-03-21T12:40:57;101220.22;;;16.52;100.00
62031;BME280;62035;52.094;5.112;2023-03-21T12:43:43;101222.13;;;17.12;100.00
62031;BME280;62035;52.094;5.112;2023-03-21T12:46:18;101223.59;;;16.77;100.00
62031;BME280;62035;52.094;5.112;2023-03-21T12:48:55;101213.41;;;16.87;100.00
62031;BME280;62035;52.094;5.112;2023-03-21T12:51:29;101230.56;;;17.23;100.00
62031;BME280;62035;52.094;5.112;2023-03-21T12:54:04;101220.47;;;16.88;100.00
62031;BME280;62035;52.094;5.112;2023-03-21T12:56:46;101212.25;;;16.66;100.00
62031;BME280;62035;52.094;5.112;2023-03-21T12:59:32;101189.00;;;16.28;100.00
62031;BME280;62035;52.094;5.112;2023-03-21T13:02:15;101213.13;;;16.59;100.00
62031;BME280;62035;52.094;5.112;2023-03-21T13:04:54;101202.59;;;16.26;100.00
62031;BME280;62035;52.094;5.112;2023-03-21T13:07:27;101202.53;;;15.73;100.00
62031;BME280;62035;52.094;5.112;2023-03-21T13:10:00;101194.03;;;16.00;100.00
62031;BME280;62035;52.094;5.112;2023-03-21T13:12:43;101193.94;;;15.85;100.00